createdAt,value
2023-03-18T00:00:25.514Z,11.00
2023-03-18T00:02:57.650Z,10.00
2023-03-18T00:05:27.801Z,10.60
2023-03-18T00:07:57.615Z,9.60
2023-03-18T00:10:26.857Z,10.20
2023-03-18T00:12:55.977Z,9.80
2023-03-18T00:15:25.338Z,10.10
2023-03-18T00:17:54.948Z,9.50
2023-03-18T00:20:38.938Z,9.90
2023-03-18T00:23:10.717Z,10.60
2023-03-18T00:25:39.765Z,10.60
2023-03-18T00:28:08.674Z,10.70
2023-03-18T00:30:39.050Z,9.00
2023-03-18T00:33:10.319Z,8.80
2023-03-18T00:35:40.345Z,10.40
2023-03-18T00:38:20.976Z,9.90
2023-03-18T00:41:01.731Z,10.20
2023-03-18T00:43:34.157Z,9.60
2023-03-18T00:46:04.544Z,10.10
2023-03-18T00:48:34.693Z,10.30
2023-03-18T00:51:04.349Z,10.70
2023-03-18T00:53:34.112Z,10.00
2023-03-18T00:56:03.100Z,10.30
2023-03-18T00:58:32.156Z,10.60
2023-03-18T01:01:01.879Z,9.80
2023-03-18T01:03:32.498Z,9.80
2023-03-18T01:06:02.974Z,10.70
2023-03-18T01:08:32.514Z,10.00
2023-03-18T01:11:01.981Z,9.90
2023-03-18T01:13:31.188Z,10.60
2023-03-18T01:16:01.047Z,9.80
2023-03-18T01:18:30.551Z,10.30
2023-03-18T01:20:59.636Z,9.80
2023-03-18T01:23:31.458Z,11.20
2023-03-18T01:26:00.319Z,10.20
2023-03-18T01:28:29.828Z,11.40
2023-03-18T01:30:58.977Z,10.60
2023-03-18T01:33:29.294Z,10.40
2023-03-18T01:36:00.363Z,9.90
2023-03-18T01:38:31.588Z,9.70
2023-03-18T01:41:08.954Z,9.00
2023-03-18T01:43:41.085Z,8.30
2023-03-18T01:46:37.969Z,9.20
2023-03-18T01:49:14.324Z,8.90
2023-03-18T01:52:05.872Z,8.50
2023-03-18T01:54:38.587Z,8.00
2023-03-18T01:57:08.117Z,7.70
2023-03-18T01:59:39.013Z,7.70
2023-03-18T02:02:10.784Z,7.40
2023-03-18T02:04:45.298Z,7.90
2023-03-18T02:07:21.115Z,7.60
2023-03-18T02:09:51.157Z,7.80
2023-03-18T02:12:26.337Z,7.40
2023-03-18T02:14:58.119Z,6.90
2023-03-18T02:17:32.535Z,6.60
2023-03-18T02:20:10.916Z,7.20
2023-03-18T02:22:43.856Z,7.10
2023-03-18T02:25:26.665Z,7.30
2023-03-18T02:27:59.581Z,7.00
2023-03-18T02:30:38.483Z,7.40
2023-03-18T02:33:09.653Z,6.70
2023-03-18T02:35:40.140Z,7.10
2023-03-18T02:38:10.020Z,7.20
2023-03-18T02:40:40.203Z,7.30
2023-03-18T02:43:28.153Z,6.90
2023-03-18T02:46:44.396Z,6.20
2023-03-18T02:49:13.735Z,6.90
2023-03-18T02:51:43.037Z,6.80
2023-03-18T02:54:14.764Z,6.80
2023-03-18T02:56:44.152Z,6.30
2023-03-18T02:59:14.705Z,7.30
2023-03-18T03:01:44.593Z,6.70
2023-03-18T03:04:14.279Z,7.20
2023-03-18T03:06:43.633Z,6.90
2023-03-18T03:09:14.565Z,6.80
2023-03-18T03:11:45.075Z,7.10
2023-03-18T03:14:17.014Z,6.70
2023-03-18T03:16:47.759Z,7.00
2023-03-18T03:19:24.162Z,7.40
2023-03-18T03:21:54.043Z,7.60
2023-03-18T03:24:22.866Z,7.00
2023-03-18T03:26:53.468Z,7.30
2023-03-18T03:29:22.182Z,7.40
2023-03-18T03:31:51.891Z,7.20
2023-03-18T03:34:21.705Z,7.00
2023-03-18T03:36:50.486Z,7.40
2023-03-18T03:39:20.598Z,7.30
2023-03-18T03:41:49.610Z,6.30
2023-03-18T03:44:18.485Z,6.80
2023-03-18T03:46:51.555Z,7.40
2023-03-18T03:49:20.573Z,7.00
2023-03-18T03:51:49.490Z,6.60
2023-03-18T03:54:20.188Z,6.50
2023-03-18T03:56:50.946Z,6.50
2023-03-18T03:59:21.015Z,6.80
2023-03-18T04:02:12.167Z,6.80
2023-03-18T04:04:45.617Z,6.50
2023-03-18T04:07:23.034Z,6.80
2023-03-18T04:09:52.087Z,7.10
2023-03-18T04:12:21.550Z,6.90
2023-03-18T04:14:57.088Z,7.10
2023-03-18T04:17:25.941Z,6.00
2023-03-18T04:19:54.971Z,6.40
2023-03-18T04:22:24.613Z,5.80
2023-03-18T04:24:53.751Z,6.40
2023-03-18T04:27:23.347Z,6.10
2023-03-18T04:29:56.738Z,5.80
2023-03-18T04:32:30.960Z,7.20
2023-03-18T04:35:00.341Z,6.70
2023-03-18T04:37:29.662Z,6.40
2023-03-18T04:39:59.708Z,5.80
2023-03-18T04:42:28.801Z,6.40
2023-03-18T04:44:58.312Z,5.70
2023-03-18T04:47:28.732Z,6.00
2023-03-18T04:49:58.670Z,5.80
2023-03-18T04:52:27.865Z,5.90
2023-03-18T04:54:57.143Z,6.60
2023-03-18T04:57:26.788Z,6.00
2023-03-18T05:00:02.414Z,5.70
2023-03-18T05:02:32.713Z,7.10
2023-03-18T05:05:01.666Z,5.90
2023-03-18T05:07:32.387Z,5.40
2023-03-18T05:10:07.413Z,5.70
2023-03-18T05:12:43.855Z,6.10
2023-03-18T05:15:14.808Z,5.80
2023-03-18T05:17:48.892Z,5.60
2023-03-18T05:20:19.073Z,5.90
2023-03-18T05:22:50.241Z,5.50
2023-03-18T05:25:28.873Z,5.70
2023-03-18T05:27:59.144Z,5.20
2023-03-18T05:30:34.838Z,5.80
2023-03-18T05:33:05.386Z,5.50
2023-03-18T05:35:45.781Z,5.90
2023-03-18T05:38:15.171Z,4.90
2023-03-18T05:40:45.097Z,5.30
2023-03-18T05:43:22.375Z,5.30
2023-03-18T05:45:55.584Z,5.30
2023-03-18T05:48:32.393Z,5.50
2023-03-18T05:51:06.367Z,5.20
2023-03-18T05:56:31.850Z,5.20
2023-03-18T05:59:04.104Z,5.40
2023-03-18T06:01:46.333Z,5.50
2023-03-18T06:04:17.748Z,5.10
2023-03-18T06:06:47.385Z,5.10
2023-03-18T06:09:21.124Z,6.30
2023-03-18T06:11:52.054Z,5.50
2023-03-18T06:14:21.622Z,6.00
2023-03-18T06:19:23.067Z,5.40
2023-03-18T06:21:53.155Z,5.70
2023-03-18T06:24:22.296Z,5.70
2023-03-18T06:26:52.282Z,5.60
2023-03-18T06:29:25.657Z,5.30
2023-03-18T06:31:56.047Z,5.00
2023-03-18T06:34:33.035Z,4.70
2023-03-18T06:37:03.872Z,5.70
2023-03-18T06:39:33.513Z,5.60
2023-03-18T06:42:05.467Z,5.70
2023-03-18T06:44:43.276Z,5.60
2023-03-18T06:47:21.559Z,5.80
2023-03-18T06:49:57.073Z,5.40
2023-03-18T06:52:33.190Z,5.60
2023-03-18T06:55:07.596Z,5.10
2023-03-18T06:57:40.901Z,5.60
2023-03-18T07:00:14.302Z,4.90
2023-03-18T07:02:44.379Z,5.20
2023-03-18T07:05:15.413Z,5.30
2023-03-18T07:07:44.818Z,5.60
2023-03-18T07:10:27.891Z,5.10
2023-03-18T07:13:02.769Z,5.00
2023-03-18T07:15:33.693Z,4.70
2023-03-18T07:18:05.506Z,5.60
2023-03-18T07:20:37.164Z,4.90
2023-03-18T07:23:07.631Z,5.20
2023-03-18T07:25:37.007Z,5.60
2023-03-18T07:28:06.862Z,5.10
2023-03-18T07:30:36.277Z,5.30
2023-03-18T07:33:07.482Z,5.20
2023-03-18T07:35:41.370Z,4.80
2023-03-18T07:38:10.797Z,4.90
2023-03-18T07:40:39.859Z,5.00
2023-03-18T07:43:09.762Z,5.20
2023-03-18T07:45:41.638Z,4.90
2023-03-18T07:48:11.117Z,4.90
2023-03-18T07:50:41.422Z,4.90
2023-03-18T07:53:11.085Z,4.90
2023-03-18T07:55:41.317Z,4.80
2023-03-18T07:58:10.558Z,4.70
2023-03-18T08:00:40.247Z,5.90
2023-03-18T08:03:10.360Z,5.90
2023-03-18T08:05:40.288Z,5.40
2023-03-18T08:08:10.317Z,4.80
2023-03-18T08:10:43.791Z,5.10
2023-03-18T08:13:13.859Z,5.20
2023-03-18T08:15:43.116Z,4.80
2023-03-18T08:18:14.384Z,4.70
2023-03-18T08:20:45.226Z,4.70
2023-03-18T08:23:15.190Z,4.90
2023-03-18T08:25:44.359Z,5.20
2023-03-18T08:28:14.331Z,4.80
2023-03-18T08:30:48.135Z,4.70
2023-03-18T08:33:17.403Z,4.70
2023-03-18T08:35:46.891Z,5.10
2023-03-18T08:38:16.523Z,4.90
2023-03-18T08:40:47.028Z,4.50
2023-03-18T08:43:16.092Z,4.70
2023-03-18T08:45:46.427Z,4.80
2023-03-18T08:48:15.401Z,5.00
2023-03-18T08:50:50.070Z,4.70
2023-03-18T08:53:19.996Z,4.90
2023-03-18T08:55:48.946Z,4.70
2023-03-18T08:58:19.885Z,5.00
2023-03-18T09:00:50.926Z,4.60
2023-03-18T09:03:22.414Z,4.30
2023-03-18T09:05:53.906Z,4.90
2023-03-18T09:08:23.035Z,5.30
2023-03-18T09:10:54.862Z,4.80
2023-03-18T09:13:24.581Z,5.00
2023-03-18T09:15:57.621Z,5.00
2023-03-18T09:18:29.950Z,5.00
2023-03-18T09:20:58.913Z,4.50
2023-03-18T09:23:29.984Z,4.80
2023-03-18T09:26:00.334Z,4.30
2023-03-18T09:28:29.645Z,4.80
2023-03-18T09:30:58.931Z,4.80
2023-03-18T09:33:28.344Z,4.50
2023-03-18T09:35:57.566Z,4.70
2023-03-18T09:38:28.177Z,4.70
2023-03-18T09:41:13.591Z,4.50
2023-03-18T09:44:21.941Z,4.50
2023-03-18T09:47:23.407Z,4.30
2023-03-18T09:50:06.078Z,4.50
2023-03-18T09:52:46.336Z,4.70
2023-03-18T09:55:40.682Z,4.40
2023-03-18T09:58:26.292Z,4.20
2023-03-18T10:01:03.960Z,4.60
2023-03-18T10:04:14.205Z,4.60
2023-03-18T10:06:43.724Z,4.30
2023-03-18T10:09:47.582Z,4.50
2023-03-18T10:12:45.890Z,4.40
2023-03-18T10:15:27.379Z,4.50
2023-03-18T10:18:27.114Z,4.60
2023-03-18T10:21:29.788Z,4.80
2023-03-18T10:24:32.930Z,4.40
2023-03-18T10:27:25.813Z,4.70
2023-03-18T10:30:27.997Z,4.50
2023-03-18T10:33:18.431Z,4.60
2023-03-18T10:36:02.512Z,4.00
2023-03-18T10:38:38.722Z,4.30
2023-03-18T10:41:25.886Z,4.10
2023-03-18T10:43:56.996Z,4.40
2023-03-18T10:46:26.342Z,4.40
2023-03-18T10:49:01.222Z,4.10
2023-03-18T10:51:37.576Z,4.10
2023-03-18T10:54:14.027Z,4.40
2023-03-18T10:56:44.154Z,4.30
2023-03-18T10:59:18.539Z,3.80
2023-03-18T11:02:15.056Z,3.90
2023-03-18T11:04:55.838Z,3.80
2023-03-18T11:07:28.306Z,4.00
2023-03-18T11:10:12.671Z,4.20
2023-03-18T11:12:42.603Z,4.00
2023-03-18T11:15:13.337Z,4.00
2023-03-18T11:17:43.811Z,4.20
2023-03-18T11:20:21.429Z,3.70
2023-03-18T11:22:53.536Z,4.30
2023-03-18T11:25:26.264Z,4.10
2023-03-18T11:28:04.654Z,4.10
2023-03-18T11:30:46.594Z,4.10
2023-03-18T11:33:17.640Z,4.00
2023-03-18T11:35:58.255Z,4.00
2023-03-18T11:38:29.559Z,4.40
2023-03-18T11:41:09.050Z,3.90
2023-03-18T11:43:38.843Z,4.20
2023-03-18T11:46:09.514Z,4.70
2023-03-18T11:48:41.054Z,4.60
2023-03-18T11:51:40.084Z,4.40
2023-03-18T11:54:43.828Z,4.50
2023-03-18T11:57:20.856Z,4.40
2023-03-18T12:00:05.785Z,4.30
2023-03-18T12:03:19.545Z,4.80
2023-03-18T12:05:52.886Z,4.20
2023-03-18T12:09:07.483Z,4.30
2023-03-18T12:12:05.276Z,4.10
2023-03-18T12:17:24.655Z,4.00
2023-03-18T12:20:30.730Z,4.40
2023-03-18T12:23:27.877Z,4.10
2023-03-18T12:26:25.390Z,4.30
2023-03-18T12:29:19.506Z,5.70
2023-03-18T12:31:57.683Z,4.40
2023-03-18T12:34:47.174Z,4.30
2023-03-18T12:37:34.890Z,4.40
2023-03-18T12:40:13.282Z,5.30
2023-03-18T12:42:52.511Z,4.70
2023-03-18T12:45:24.275Z,4.90
2023-03-18T12:48:13.128Z,3.90
2023-03-18T12:50:43.488Z,4.40
2023-03-18T12:53:17.771Z,4.40
2023-03-18T12:55:50.997Z,4.10
2023-03-18T13:00:58.005Z,4.30
2023-03-18T13:03:38.945Z,4.30
2023-03-18T13:06:34.565Z,4.20
2023-03-18T13:09:27.217Z,4.40
2023-03-18T13:12:21.029Z,3.80
2023-03-18T13:15:08.858Z,4.40
2023-03-18T13:17:40.451Z,4.20
2023-03-18T13:20:34.303Z,4.40
2023-03-18T13:23:41.882Z,4.50
2023-03-18T13:26:15.745Z,4.60
2023-03-18T13:29:08.402Z,4.00
2023-03-18T13:31:47.925Z,4.50
2023-03-18T13:34:43.663Z,4.30
2023-03-18T13:37:37.032Z,4.10
2023-03-18T13:40:10.576Z,4.50
2023-03-18T13:42:39.674Z,4.30
2023-03-18T13:45:22.806Z,4.40
2023-03-18T13:47:59.911Z,4.70
2023-03-18T13:50:43.727Z,4.40
2023-03-18T13:53:26.780Z,4.70
2023-03-18T13:55:59.012Z,4.30
2023-03-18T13:58:30.833Z,4.50
2023-03-18T14:04:32.524Z,3.70
2023-03-18T14:07:16.319Z,4.20
2023-03-18T14:10:15.396Z,4.00
2023-03-18T14:12:48.765Z,4.30
2023-03-18T14:15:24.460Z,4.70
2023-03-18T14:17:59.064Z,4.20
2023-03-18T14:20:29.131Z,4.10
2023-03-18T14:23:37.976Z,14.20
2023-03-18T14:26:17.268Z,117.30
2023-03-18T14:29:11.436Z,92.80
2023-03-18T14:31:44.771Z,77.40
2023-03-18T14:34:20.143Z,99.30
2023-03-18T14:36:55.091Z,86.30
2023-03-18T14:39:34.739Z,37.60
2023-03-18T14:42:21.748Z,20.70
2023-03-18T14:44:54.394Z,6.90
2023-03-18T14:47:54.874Z,19.30
2023-03-18T14:50:47.485Z,47.40
2023-03-18T14:53:26.455Z,90.70
2023-03-18T14:55:57.401Z,53.70
2023-03-18T14:58:27.932Z,31.00
2023-03-18T15:01:05.679Z,22.20
2023-03-18T15:03:35.374Z,13.70
2023-03-18T15:06:05.321Z,49.90
2023-03-18T15:08:47.329Z,17.20
2023-03-18T15:11:19.247Z,10.60
2023-03-18T15:13:48.369Z,9.80
2023-03-18T15:16:20.689Z,7.60
2023-03-18T15:18:55.295Z,6.10
2023-03-18T15:21:35.472Z,6.10
2023-03-18T15:24:08.072Z,5.10
2023-03-18T15:26:39.630Z,5.70
2023-03-18T15:30:01.354Z,5.80
2023-03-18T15:32:32.699Z,5.00
2023-03-18T15:35:12.297Z,4.60
2023-03-18T15:37:43.500Z,4.50
2023-03-18T15:40:26.545Z,4.90
2023-03-18T15:42:58.850Z,6.70
2023-03-18T15:45:29.332Z,8.00
2023-03-18T15:48:00.125Z,9.20
2023-03-18T15:50:30.964Z,8.80
2023-03-18T15:53:30.794Z,7.20
2023-03-18T15:56:08.002Z,7.50
2023-03-18T15:58:38.220Z,7.60
2023-03-18T16:01:08.453Z,6.70
2023-03-18T16:03:43.793Z,6.10
2023-03-18T16:06:15.272Z,6.10
2023-03-18T16:08:46.491Z,7.30
2023-03-18T16:11:18.254Z,7.60
2023-03-18T16:13:47.909Z,12.10
2023-03-18T16:16:29.455Z,8.40
2023-03-18T16:19:00.150Z,9.10
2023-03-18T16:21:30.008Z,9.30
2023-03-18T16:23:59.336Z,8.80
2023-03-18T16:26:28.705Z,10.40
2023-03-18T16:28:57.639Z,9.70
2023-03-18T16:31:28.256Z,10.30
2023-03-18T16:33:57.364Z,11.20
2023-03-18T16:36:32.642Z,11.60
2023-03-18T16:39:02.120Z,11.50
2023-03-18T16:41:32.013Z,10.70
2023-03-18T16:44:02.143Z,10.20
2023-03-18T16:46:39.097Z,10.90
2023-03-18T16:49:16.734Z,10.60
2023-03-18T16:51:47.244Z,13.10
2023-03-18T16:54:22.090Z,13.50
2023-03-18T16:56:53.056Z,13.30
2023-03-18T16:59:25.444Z,13.10
2023-03-18T17:01:54.611Z,12.80
2023-03-18T17:04:34.800Z,14.50
2023-03-18T17:07:05.069Z,14.80
2023-03-18T17:09:34.837Z,15.40
2023-03-18T17:12:07.621Z,12.80
2023-03-18T17:14:39.256Z,11.80
2023-03-18T17:17:14.730Z,12.60
2023-03-18T17:19:46.296Z,10.90
2023-03-18T17:22:24.136Z,11.20
2023-03-18T17:24:54.059Z,10.30
2023-03-18T17:27:40.104Z,8.40
2023-03-18T17:30:20.875Z,7.10
2023-03-18T17:32:50.340Z,7.00
2023-03-18T17:35:21.661Z,7.20
2023-03-18T17:37:51.102Z,6.10
2023-03-18T17:40:22.881Z,5.70
2023-03-18T17:42:54.388Z,5.60
2023-03-18T17:45:32.870Z,5.60
2023-03-18T17:48:30.495Z,5.00
2023-03-18T17:51:20.153Z,4.90
2023-03-18T17:53:56.894Z,6.70
2023-03-18T17:56:28.340Z,7.30
2023-03-18T17:58:59.290Z,7.00
2023-03-18T18:01:30.497Z,6.40
2023-03-18T18:04:00.935Z,7.80
2023-03-18T18:06:30.788Z,9.20
2023-03-18T18:09:00.781Z,8.10
2023-03-18T18:11:38.363Z,6.80
2023-03-18T18:14:16.136Z,6.10
2023-03-18T18:16:46.586Z,6.10
2023-03-18T18:19:16.629Z,5.30
2023-03-18T18:21:46.607Z,6.20
2023-03-18T18:24:26.929Z,10.40
2023-03-18T18:26:58.201Z,11.90
2023-03-18T18:29:34.889Z,12.80
2023-03-18T18:32:07.232Z,17.70
2023-03-18T18:34:37.268Z,16.50
2023-03-18T18:37:07.036Z,18.20
2023-03-18T18:39:35.968Z,73.90
2023-03-18T18:42:12.791Z,17.10
2023-03-18T18:44:43.839Z,16.20
2023-03-18T18:47:23.878Z,16.10
2023-03-18T18:49:53.251Z,28.70
2023-03-18T18:52:23.792Z,62.60
2023-03-18T18:54:53.102Z,45.20
2023-03-18T18:57:30.924Z,23.50
2023-03-18T18:59:59.950Z,36.20
2023-03-18T19:02:37.975Z,50.60
2023-03-18T19:05:08.597Z,26.30
2023-03-18T19:07:37.946Z,19.70
2023-03-18T19:10:08.911Z,19.20
2023-03-18T19:12:44.830Z,38.20
2023-03-18T19:15:15.673Z,35.90
2023-03-18T19:17:46.995Z,36.10
2023-03-18T19:20:30.236Z,39.60
2023-03-18T19:22:59.985Z,22.50
2023-03-18T19:25:30.125Z,22.20
2023-03-18T19:27:59.531Z,27.20
2023-03-18T19:30:29.701Z,29.90
2023-03-18T19:33:00.212Z,30.70
2023-03-18T19:35:29.459Z,40.10
2023-03-18T19:37:59.795Z,24.60
2023-03-18T19:40:34.710Z,19.70
2023-03-18T19:43:14.076Z,20.20
2023-03-18T19:45:44.737Z,21.40
2023-03-18T19:48:24.021Z,23.10
2023-03-18T19:50:53.478Z,25.80
2023-03-18T19:53:24.534Z,25.20
2023-03-18T19:55:54.107Z,23.10
2023-03-18T19:58:26.710Z,24.70
2023-03-18T20:00:56.787Z,22.30
2023-03-18T20:03:27.037Z,21.90
2023-03-18T20:06:03.943Z,21.80
2023-03-18T20:08:34.294Z,24.80
2023-03-18T20:11:03.497Z,26.10
2023-03-18T20:13:40.322Z,24.30
2023-03-18T20:16:15.265Z,21.20
2023-03-18T20:18:44.650Z,20.60
2023-03-18T20:21:35.729Z,22.40
2023-03-18T20:24:10.112Z,21.40
2023-03-18T20:26:44.776Z,22.30
2023-03-18T20:29:21.272Z,23.20
2023-03-18T20:31:50.470Z,22.60
2023-03-18T20:34:20.419Z,23.70
2023-03-18T20:36:49.765Z,24.00
2023-03-18T20:39:20.741Z,22.50
2023-03-18T20:41:50.536Z,21.80
2023-03-18T20:44:19.604Z,21.90
2023-03-18T20:46:48.589Z,21.30
2023-03-18T20:49:20.271Z,20.80
2023-03-18T20:51:51.178Z,19.90
2023-03-18T20:54:23.866Z,18.50
2023-03-18T20:56:52.770Z,18.00
2023-03-18T20:59:22.358Z,18.30
2023-03-18T21:01:51.959Z,17.60
2023-03-18T21:04:20.928Z,16.60
2023-03-18T21:06:49.994Z,16.20
2023-03-18T21:09:19.148Z,14.40
2023-03-18T21:11:48.056Z,16.90
2023-03-18T21:14:17.279Z,16.50
2023-03-18T21:16:46.773Z,15.80
2023-03-18T21:19:17.604Z,16.10
2023-03-18T21:21:46.752Z,15.80
2023-03-18T21:24:24.234Z,16.80
2023-03-18T21:27:04.338Z,18.50
2023-03-18T21:29:34.595Z,18.60
2023-03-18T21:32:05.713Z,18.70
2023-03-18T21:34:36.890Z,16.40
2023-03-18T21:37:13.135Z,13.70
2023-03-18T21:39:43.325Z,13.20
2023-03-18T21:42:17.897Z,14.30
2023-03-18T21:44:47.248Z,13.10
2023-03-18T21:47:18.112Z,14.20
2023-03-18T21:49:49.699Z,14.60
2023-03-18T21:52:23.063Z,13.90
2023-03-18T21:54:52.417Z,12.80
2023-03-18T21:57:23.600Z,13.30
2023-03-18T21:59:53.173Z,14.80
2023-03-18T22:02:25.259Z,13.80
2023-03-18T22:04:55.647Z,15.10
2023-03-18T22:07:31.740Z,14.70
2023-03-18T22:10:01.535Z,16.00
2023-03-18T22:12:31.687Z,17.80
2023-03-18T22:15:01.189Z,23.60
2023-03-18T22:17:32.382Z,23.20
2023-03-18T22:20:01.876Z,24.70
2023-03-18T22:22:37.266Z,32.60
2023-03-18T22:25:08.841Z,34.40
2023-03-18T22:27:37.868Z,29.80
2023-03-18T22:30:09.859Z,24.70
2023-03-18T22:32:41.622Z,21.50
2023-03-18T22:35:18.043Z,20.70
2023-03-18T22:37:47.340Z,20.70
2023-03-18T22:40:18.825Z,18.80
2023-03-18T22:42:48.812Z,18.10
2023-03-18T22:45:26.228Z,17.80
2023-03-18T22:47:58.670Z,17.50
2023-03-18T22:50:28.820Z,17.90
2023-03-18T22:53:07.828Z,19.50
2023-03-18T22:55:39.286Z,19.10
2023-03-18T22:58:08.221Z,18.80
2023-03-18T23:00:41.539Z,16.80
2023-03-18T23:03:14.152Z,19.40
2023-03-18T23:08:12.411Z,19.40
2023-03-18T23:10:44.059Z,19.00
2023-03-18T23:13:17.301Z,18.70
2023-03-18T23:15:47.996Z,19.10
2023-03-18T23:18:17.570Z,18.50
2023-03-18T23:20:48.636Z,17.90
2023-03-18T23:23:18.635Z,19.40
2023-03-18T23:25:47.916Z,19.80
2023-03-18T23:28:21.436Z,20.00
2023-03-18T23:30:51.847Z,19.50
2023-03-18T23:33:21.171Z,20.00
2023-03-18T23:35:50.172Z,20.40
2023-03-18T23:38:19.508Z,19.10
2023-03-18T23:40:48.750Z,18.10
2023-03-18T23:43:21.821Z,18.10
2023-03-18T23:45:51.617Z,21.50
2023-03-18T23:48:20.837Z,20.60
2023-03-18T23:50:50.193Z,20.10
2023-03-18T23:53:21.196Z,19.50
2023-03-18T23:55:50.567Z,18.10
2023-03-18T23:58:20.380Z,17.90
